sensor_id;sensor_type;location;lat;lon;timestamp;temperature;humidity
20070;DHT22;10195;50.868;4.382;2023-12-20T00:00:58;7.50;99.90
20070;DHT22;10195;50.868;4.382;2023-12-20T00:03:24;7.50;99.90
20070;DHT22;10195;50.868;4.382;2023-12-20T00:05:50;7.40;99.90
20070;DHT22;10195;50.868;4.382;2023-12-20T00:08:16;7.30;99.90
20070;DHT22;10195;50.868;4.382;2023-12-20T00:10:43;7.40;99.90
20070;DHT22;10195;50.868;4.382;2023-12-20T00:13:09;7.40;99.90
20070;DHT22;10195;50.868;4.382;2023-12-20T00:15:35;7.50;99.90
20070;DHT22;10195;50.868;4.382;2023-12-20T00:18:01;7.40;99.90
20070;DHT22;10195;50.868;4.382;2023-12-20T00:20:27;7.40;99.90
20070;DHT22;10195;50.868;4.382;2023-12-20T00:22:58;7.30;99.90
20070;DHT22;10195;50.868;4.382;2023-12-20T00:25:27;7.30;99.90
20070;DHT22;10195;50.868;4.382;2023-12-20T00:27:52;7.30;99.90
20070;DHT22;10195;50.868;4.382;2023-12-20T00:30:18;7.30;99.90
20070;DHT22;10195;50.868;4.382;2023-12-20T00:32:44;7.30;99.90
20070;DHT22;10195;50.868;4.382;2023-12-20T00:35:15;7.30;99.90
20070;DHT22;10195;50.868;4.382;2023-12-20T00:37:42;7.30;99.90
20070;DHT22;10195;50.868;4.382;2023-12-20T00:40:08;7.20;99.90
20070;DHT22;10195;50.868;4.382;2023-12-20T00:42:34;7.20;99.90
20070;DHT22;10195;50.868;4.382;2023-12-20T00:45:01;7.20;99.90
20070;DHT22;10195;50.868;4.382;2023-12-20T00:47:27;7.20;99.90
20070;DHT22;10195;50.868;4.382;2023-12-20T00:49:53;7.10;99.90
20070;DHT22;10195;50.868;4.382;2023-12-20T00:52:19;7.20;99.90
20070;DHT22;10195;50.868;4.382;2023-12-20T00:54:45;7.20;99.90
20070;DHT22;10195;50.868;4.382;2023-12-20T00:57:13;7.20;99.90
20070;DHT22;10195;50.868;4.382;2023-12-20T00:59:39;7.10;99.90
20070;DHT22;10195;50.868;4.382;2023-12-20T01:02:05;7.10;99.90
20070;DHT22;10195;50.868;4.382;2023-12-20T01:04:30;7.10;99.90
20070;DHT22;10195;50.868;4.382;2023-12-20T01:06:56;7.10;99.90
20070;DHT22;10195;50.868;4.382;2023-12-20T01:09:21;7.00;99.90
20070;DHT22;10195;50.868;4.382;2023-12-20T01:11:52;7.00;99.90
20070;DHT22;10195;50.868;4.382;2023-12-20T01:14:17;7.00;99.90
20070;DHT22;10195;50.868;4.382;2023-12-20T01:16:43;7.10;99.90
20070;DHT22;10195;50.868;4.382;2023-12-20T01:19:09;7.10;99.90
20070;DHT22;10195;50.868;4.382;2023-12-20T01:21:34;7.00;99.90
20070;DHT22;10195;50.868;4.382;2023-12-20T01:24:00;7.00;99.90
20070;DHT22;10195;50.868;4.382;2023-12-20T01:26:26;6.90;99.90
20070;DHT22;10195;50.868;4.382;2023-12-20T01:28:51;7.00;99.90
20070;DHT22;10195;50.868;4.382;2023-12-20T01:31:17;7.00;99.90
20070;DHT22;10195;50.868;4.382;2023-12-20T01:33:43;6.90;99.90
20070;DHT22;10195;50.868;4.382;2023-12-20T01:36:08;6.80;99.90
20070;DHT22;10195;50.868;4.382;2023-12-20T01:38:34;6.90;99.90
20070;DHT22;10195;50.868;4.382;2023-12-20T01:41:00;7.00;99.90
20070;DHT22;10195;50.868;4.382;2023-12-20T01:43:26;6.90;99.90
20070;DHT22;10195;50.868;4.382;2023-12-20T01:45:52;7.00;99.90
20070;DHT22;10195;50.868;4.382;2023-12-20T01:48:18;6.90;99.90
20070;DHT22;10195;50.868;4.382;2023-12-20T01:50:45;6.90;99.90
20070;DHT22;10195;50.868;4.382;2023-12-20T01:53:12;6.90;99.90
20070;DHT22;10195;50.868;4.382;2023-12-20T01:55:40;7.00;99.90
20070;DHT22;10195;50.868;4.382;2023-12-20T01:58:09;7.00;99.90
20070;DHT22;10195;50.868;4.382;2023-12-20T02:00:36;7.00;99.90
20070;DHT22;10195;50.868;4.382;2023-12-20T02:03:03;7.00;99.90
20070;DHT22;10195;50.868;4.382;2023-12-20T02:05:33;7.00;99.90
20070;DHT22;10195;50.868;4.382;2023-12-20T02:07:59;7.10;99.90
20070;DHT22;10195;50.868;4.382;2023-12-20T02:10:25;7.10;99.90
20070;DHT22;10195;50.868;4.382;2023-12-20T02:12:51;7.00;99.90
20070;DHT22;10195;50.868;4.382;2023-12-20T02:15:17;7.00;99.90
20070;DHT22;10195;50.868;4.382;2023-12-20T02:17:44;7.00;99.90
20070;DHT22;10195;50.868;4.382;2023-12-20T02:20:11;6.90;99.90
20070;DHT22;10195;50.868;4.382;2023-12-20T02:22:36;7.10;99.90
20070;DHT22;10195;50.868;4.382;2023-12-20T02:25:02;7.00;99.90
20070;DHT22;10195;50.868;4.382;2023-12-20T02:27:29;7.00;99.90
20070;DHT22;10195;50.868;4.382;2023-12-20T02:29:55;7.00;99.90
20070;DHT22;10195;50.868;4.382;2023-12-20T02:32:21;6.90;99.90
20070;DHT22;10195;50.868;4.382;2023-12-20T02:34:48;6.90;99.90
20070;DHT22;10195;50.868;4.382;2023-12-20T02:37:14;6.90;99.90
20070;DHT22;10195;50.868;4.382;2023-12-20T02:39:40;7.00;99.90
20070;DHT22;10195;50.868;4.382;2023-12-20T02:42:05;7.00;99.90
20070;DHT22;10195;50.868;4.382;2023-12-20T02:44:31;7.00;99.90
20070;DHT22;10195;50.868;4.382;2023-12-20T02:46:57;7.00;99.90
20070;DHT22;10195;50.868;4.382;2023-12-20T02:49:22;7.00;99.90
20070;DHT22;10195;50.868;4.382;2023-12-20T02:51:48;7.00;99.90
20070;DHT22;10195;50.868;4.382;2023-12-20T02:54:14;7.00;99.90
20070;DHT22;10195;50.868;4.382;2023-12-20T02:56:39;7.00;99.90
20070;DHT22;10195;50.868;4.382;2023-12-20T02:59:05;7.00;99.90
20070;DHT22;10195;50.868;4.382;2023-12-20T03:01:31;7.00;99.90
20070;DHT22;10195;50.868;4.382;2023-12-20T03:03:57;6.90;99.90
20070;DHT22;10195;50.868;4.382;2023-12-20T03:06:23;7.00;99.90
20070;DHT22;10195;50.868;4.382;2023-12-20T03:08:49;7.00;99.90
20070;DHT22;10195;50.868;4.382;2023-12-20T03:11:14;7.10;99.90
20070;DHT22;10195;50.868;4.382;2023-12-20T03:13:40;7.10;99.90
20070;DHT22;10195;50.868;4.382;2023-12-20T03:16:09;7.20;99.90
20070;DHT22;10195;50.868;4.382;2023-12-20T03:18:35;7.20;99.90
20070;DHT22;10195;50.868;4.382;2023-12-20T03:21:01;7.20;99.90
20070;DHT22;10195;50.868;4.382;2023-12-20T03:23:27;7.20;99.90
20070;DHT22;10195;50.868;4.382;2023-12-20T03:25:52;7.20;99.90
20070;DHT22;10195;50.868;4.382;2023-12-20T03:28:18;7.20;99.90
20070;DHT22;10195;50.868;4.382;2023-12-20T03:30:44;7.30;99.90
20070;DHT22;10195;50.868;4.382;2023-12-20T03:33:10;7.40;99.90
20070;DHT22;10195;50.868;4.382;2023-12-20T03:35:36;7.30;99.90
20070;DHT22;10195;50.868;4.382;2023-12-20T03:38:02;7.30;99.90
20070;DHT22;10195;50.868;4.382;2023-12-20T03:40:28;7.30;99.90
20070;DHT22;10195;50.868;4.382;2023-12-20T03:42:53;7.30;99.90
20070;DHT22;10195;50.868;4.382;2023-12-20T03:45:19;7.20;99.90
20070;DHT22;10195;50.868;4.382;2023-12-20T03:47:44;7.20;99.90
20070;DHT22;10195;50.868;4.382;2023-12-20T03:50:10;7.20;99.90
20070;DHT22;10195;50.868;4.382;2023-12-20T03:52:36;7.30;99.90
20070;DHT22;10195;50.868;4.382;2023-12-20T03:55:01;7.30;99.90
20070;DHT22;10195;50.868;4.382;2023-12-20T03:57:27;7.30;99.90
20070;DHT22;10195;50.868;4.382;2023-12-20T03:59:53;7.20;99.90
20070;DHT22;10195;50.868;4.382;2023-12-20T04:02:18;7.20;99.90
20070;DHT22;10195;50.868;4.382;2023-12-20T04:04:44;7.30;99.90
20070;DHT22;10195;50.868;4.382;2023-12-20T04:07:09;7.40;99.90
20070;DHT22;10195;50.868;4.382;2023-12-20T04:09:35;7.30;99.90
20070;DHT22;10195;50.868;4.382;2023-12-20T04:12:01;7.30;99.90
20070;DHT22;10195;50.868;4.382;2023-12-20T04:14:27;7.30;99.90
20070;DHT22;10195;50.868;4.382;2023-12-20T04:16:53;7.40;99.90
20070;DHT22;10195;50.868;4.382;2023-12-20T04:19:19;7.40;99.90
20070;DHT22;10195;50.868;4.382;2023-12-20T04:21:44;7.40;99.90
20070;DHT22;10195;50.868;4.382;2023-12-20T04:24:10;7.40;99.90
20070;DHT22;10195;50.868;4.382;2023-12-20T04:26:36;7.30;99.90
20070;DHT22;10195;50.868;4.382;2023-12-20T04:29:01;7.30;99.90
20070;DHT22;10195;50.868;4.382;2023-12-20T04:31:27;7.20;99.90
20070;DHT22;10195;50.868;4.382;2023-12-20T04:33:53;7.20;99.90
20070;DHT22;10195;50.868;4.382;2023-12-20T04:36:18;7.20;99.90
20070;DHT22;10195;50.868;4.382;2023-12-20T04:38:44;7.20;99.90
20070;DHT22;10195;50.868;4.382;2023-12-20T04:41:10;7.10;99.90
20070;DHT22;10195;50.868;4.382;2023-12-20T04:43:35;7.20;99.90
20070;DHT22;10195;50.868;4.382;2023-12-20T04:46:01;7.30;99.90
20070;DHT22;10195;50.868;4.382;2023-12-20T04:48:28;7.30;99.90
20070;DHT22;10195;50.868;4.382;2023-12-20T04:50:53;7.30;99.90
20070;DHT22;10195;50.868;4.382;2023-12-20T04:53:19;7.30;99.90
20070;DHT22;10195;50.868;4.382;2023-12-20T04:55:45;7.20;99.90
20070;DHT22;10195;50.868;4.382;2023-12-20T04:58:10;7.20;99.90
20070;DHT22;10195;50.868;4.382;2023-12-20T05:00:36;7.30;99.90
20070;DHT22;10195;50.868;4.382;2023-12-20T05:03:01;7.40;99.90
20070;DHT22;10195;50.868;4.382;2023-12-20T05:05:27;7.30;99.90
20070;DHT22;10195;50.868;4.382;2023-12-20T05:07:53;7.30;99.90
20070;DHT22;10195;50.868;4.382;2023-12-20T05:10:18;7.30;99.90
20070;DHT22;10195;50.868;4.382;2023-12-20T05:12:44;7.30;99.90
20070;DHT22;10195;50.868;4.382;2023-12-20T05:15:09;7.30;99.90
20070;DHT22;10195;50.868;4.382;2023-12-20T05:17:35;7.20;99.90
20070;DHT22;10195;50.868;4.382;2023-12-20T05:20:01;7.20;99.90
20070;DHT22;10195;50.868;4.382;2023-12-20T05:22:27;7.00;99.90
20070;DHT22;10195;50.868;4.382;2023-12-20T05:24:53;7.00;99.90
20070;DHT22;10195;50.868;4.382;2023-12-20T05:27:18;6.90;99.90
20070;DHT22;10195;50.868;4.382;2023-12-20T05:29:44;6.80;99.90
20070;DHT22;10195;50.868;4.382;2023-12-20T05:32:13;6.70;99.90
20070;DHT22;10195;50.868;4.382;2023-12-20T05:34:38;6.70;99.90
20070;DHT22;10195;50.868;4.382;2023-12-20T05:37:04;6.70;99.90
20070;DHT22;10195;50.868;4.382;2023-12-20T05:39:30;6.80;99.90
20070;DHT22;10195;50.868;4.382;2023-12-20T05:41:56;6.80;99.90
20070;DHT22;10195;50.868;4.382;2023-12-20T05:44:22;6.70;99.90
20070;DHT22;10195;50.868;4.382;2023-12-20T05:46:47;6.60;99.90
20070;DHT22;10195;50.868;4.382;2023-12-20T05:49:13;6.50;99.90
20070;DHT22;10195;50.868;4.382;2023-12-20T05:51:39;6.60;99.90
20070;DHT22;10195;50.868;4.382;2023-12-20T05:54:05;6.60;99.90
20070;DHT22;10195;50.868;4.382;2023-12-20T05:56:30;6.50;99.90
20070;DHT22;10195;50.868;4.382;2023-12-20T05:58:56;6.50;99.90
20070;DHT22;10195;50.868;4.382;2023-12-20T06:01:21;6.70;99.90
20070;DHT22;10195;50.868;4.382;2023-12-20T06:03:47;6.70;99.90
20070;DHT22;10195;50.868;4.382;2023-12-20T06:06:13;6.60;99.90
20070;DHT22;10195;50.868;4.382;2023-12-20T06:08:39;6.60;99.90
20070;DHT22;10195;50.868;4.382;2023-12-20T06:11:04;6.60;99.90
20070;DHT22;10195;50.868;4.382;2023-12-20T06:13:31;6.50;99.90
20070;DHT22;10195;50.868;4.382;2023-12-20T06:15:57;6.50;99.90
20070;DHT22;10195;50.868;4.382;2023-12-20T06:18:23;6.50;99.90
20070;DHT22;10195;50.868;4.382;2023-12-20T06:20:49;6.60;99.90
20070;DHT22;10195;50.868;4.382;2023-12-20T06:23:15;6.70;99.90
20070;DHT22;10195;50.868;4.382;2023-12-20T06:25:41;6.70;99.90
20070;DHT22;10195;50.868;4.382;2023-12-20T06:28:06;6.80;99.90
20070;DHT22;10195;50.868;4.382;2023-12-20T06:30:32;6.80;99.90
20070;DHT22;10195;50.868;4.382;2023-12-20T06:32:58;6.70;99.90
20070;DHT22;10195;50.868;4.382;2023-12-20T06:35:24;6.80;99.90
20070;DHT22;10195;50.868;4.382;2023-12-20T06:37:53;6.60;99.90
20070;DHT22;10195;50.868;4.382;2023-12-20T06:40:18;6.60;99.90
20070;DHT22;10195;50.868;4.382;2023-12-20T06:42:44;6.50;99.90
20070;DHT22;10195;50.868;4.382;2023-12-20T06:45:10;6.50;99.90
20070;DHT22;10195;50.868;4.382;2023-12-20T06:47:36;6.50;99.90
20070;DHT22;10195;50.868;4.382;2023-12-20T06:50:01;6.60;99.90
20070;DHT22;10195;50.868;4.382;2023-12-20T06:52:27;6.50;99.90
20070;DHT22;10195;50.868;4.382;2023-12-20T06:54:53;6.50;99.90
20070;DHT22;10195;50.868;4.382;2023-12-20T06:57:18;6.30;99.90
20070;DHT22;10195;50.868;4.382;2023-12-20T06:59:45;6.20;99.90
20070;DHT22;10195;50.868;4.382;2023-12-20T07:02:11;6.20;99.90
20070;DHT22;10195;50.868;4.382;2023-12-20T07:04:41;6.20;99.90
20070;DHT22;10195;50.868;4.382;2023-12-20T07:07:07;6.20;99.90
20070;DHT22;10195;50.868;4.382;2023-12-20T07:09:33;6.10;99.90
20070;DHT22;10195;50.868;4.382;2023-12-20T07:11:59;6.10;99.90
20070;DHT22;10195;50.868;4.382;2023-12-20T07:14:25;6.10;99.90
20070;DHT22;10195;50.868;4.382;2023-12-20T07:16:51;6.20;99.90
20070;DHT22;10195;50.868;4.382;2023-12-20T07:19:16;6.30;99.90
20070;DHT22;10195;50.868;4.382;2023-12-20T07:21:42;6.30;99.90
20070;DHT22;10195;50.868;4.382;2023-12-20T07:24:08;6.30;99.90
20070;DHT22;10195;50.868;4.382;2023-12-20T07:26:34;6.20;99.90
20070;DHT22;10195;50.868;4.382;2023-12-20T07:29:00;6.10;99.90
20070;DHT22;10195;50.868;4.382;2023-12-20T07:31:25;6.20;99.90
20070;DHT22;10195;50.868;4.382;2023-12-20T07:33:51;6.10;99.90
20070;DHT22;10195;50.868;4.382;2023-12-20T07:36:17;6.10;99.90
20070;DHT22;10195;50.868;4.382;2023-12-20T07:38:42;6.00;99.90
20070;DHT22;10195;50.868;4.382;2023-12-20T07:41:12;6.00;99.90
20070;DHT22;10195;50.868;4.382;2023-12-20T07:43:38;5.90;99.90
20070;DHT22;10195;50.868;4.382;2023-12-20T07:46:07;5.90;99.90
20070;DHT22;10195;50.868;4.382;2023-12-20T07:48:36;6.00;99.90
20070;DHT22;10195;50.868;4.382;2023-12-20T07:51:05;5.90;99.90
20070;DHT22;10195;50.868;4.382;2023-12-20T07:53:33;5.90;99.90
20070;DHT22;10195;50.868;4.382;2023-12-20T07:55:59;5.90;99.90
20070;DHT22;10195;50.868;4.382;2023-12-20T07:58:25;6.00;99.90
20070;DHT22;10195;50.868;4.382;2023-12-20T08:00:50;5.90;99.90
20070;DHT22;10195;50.868;4.382;2023-12-20T08:03:16;5.90;99.90
20070;DHT22;10195;50.868;4.382;2023-12-20T08:05:42;5.90;99.90
20070;DHT22;10195;50.868;4.382;2023-12-20T08:08:07;5.90;99.90
20070;DHT22;10195;50.868;4.382;2023-12-20T08:10:33;6.00;99.90
20070;DHT22;10195;50.868;4.382;2023-12-20T08:12:59;5.80;99.90
20070;DHT22;10195;50.868;4.382;2023-12-20T08:15:25;5.80;99.90
20070;DHT22;10195;50.868;4.382;2023-12-20T08:17:50;5.90;99.90
20070;DHT22;10195;50.868;4.382;2023-12-20T08:20:19;5.90;99.90
20070;DHT22;10195;50.868;4.382;2023-12-20T08:22:44;5.90;99.90
20070;DHT22;10195;50.868;4.382;2023-12-20T08:25:10;5.90;99.90
20070;DHT22;10195;50.868;4.382;2023-12-20T08:27:42;6.00;99.90
20070;DHT22;10195;50.868;4.382;2023-12-20T08:30:11;6.10;99.90
20070;DHT22;10195;50.868;4.382;2023-12-20T08:32:37;6.20;99.90
20070;DHT22;10195;50.868;4.382;2023-12-20T08:35:03;6.20;99.90
20070;DHT22;10195;50.868;4.382;2023-12-20T08:37:30;6.30;99.90
20070;DHT22;10195;50.868;4.382;2023-12-20T08:39:56;6.50;99.90
20070;DHT22;10195;50.868;4.382;2023-12-20T08:42:21;6.50;99.90
20070;DHT22;10195;50.868;4.382;2023-12-20T08:44:47;6.50;99.90
20070;DHT22;10195;50.868;4.382;2023-12-20T08:47:12;6.50;99.90
20070;DHT22;10195;50.868;4.382;2023-12-20T08:49:41;6.40;99.90
20070;DHT22;10195;50.868;4.382;2023-12-20T08:52:06;6.40;99.90
20070;DHT22;10195;50.868;4.382;2023-12-20T08:54:35;6.40;99.90
20070;DHT22;10195;50.868;4.382;2023-12-20T08:57:01;6.50;99.90
20070;DHT22;10195;50.868;4.382;2023-12-20T08:59:26;6.60;99.90
20070;DHT22;10195;50.868;4.382;2023-12-20T09:01:52;6.70;99.90
20070;DHT22;10195;50.868;4.382;2023-12-20T09:04:20;6.90;99.90
20070;DHT22;10195;50.868;4.382;2023-12-20T09:06:46;7.20;99.90
20070;DHT22;10195;50.868;4.382;2023-12-20T09:09:11;7.30;99.90
20070;DHT22;10195;50.868;4.382;2023-12-20T09:11:39;7.50;99.90
20070;DHT22;10195;50.868;4.382;2023-12-20T09:14:05;7.60;99.90
20070;DHT22;10195;50.868;4.382;2023-12-20T09:16:30;7.90;99.90
20070;DHT22;10195;50.868;4.382;2023-12-20T09:18:57;8.20;99.90
20070;DHT22;10195;50.868;4.382;2023-12-20T09:21:23;8.60;99.90
20070;DHT22;10195;50.868;4.382;2023-12-20T09:23:48;8.80;99.90
20070;DHT22;10195;50.868;4.382;2023-12-20T09:26:17;9.20;99.90
20070;DHT22;10195;50.868;4.382;2023-12-20T09:28:46;9.60;99.90
20070;DHT22;10195;50.868;4.382;2023-12-20T09:31:12;9.70;99.90
20070;DHT22;10195;50.868;4.382;2023-12-20T09:33:37;10.30;99.90
20070;DHT22;10195;50.868;4.382;2023-12-20T09:36:03;10.70;99.90
20070;DHT22;10195;50.868;4.382;2023-12-20T09:38:29;10.40;99.90
20070;DHT22;10195;50.868;4.382;2023-12-20T09:40:54;10.60;99.90
20070;DHT22;10195;50.868;4.382;2023-12-20T09:43:24;11.00;99.90
20070;DHT22;10195;50.868;4.382;2023-12-20T09:45:53;11.30;99.90
20070;DHT22;10195;50.868;4.382;2023-12-20T09:48:19;11.10;99.90
20070;DHT22;10195;50.868;4.382;2023-12-20T09:50:45;10.70;99.90
20070;DHT22;10195;50.868;4.382;2023-12-20T09:53:15;10.10;99.90
20070;DHT22;10195;50.868;4.382;2023-12-20T09:55:41;9.50;99.90
20070;DHT22;10195;50.868;4.382;2023-12-20T09:58:07;9.20;99.90
20070;DHT22;10195;50.868;4.382;2023-12-20T10:00:35;9.10;99.90
20070;DHT22;10195;50.868;4.382;2023-12-20T10:03:01;8.90;99.90
20070;DHT22;10195;50.868;4.382;2023-12-20T10:05:27;8.60;99.90
20070;DHT22;10195;50.868;4.382;2023-12-20T10:07:53;8.50;99.90
20070;DHT22;10195;50.868;4.382;2023-12-20T10:10:19;8.50;99.90
20070;DHT22;10195;50.868;4.382;2023-12-20T10:13:04;8.50;99.90
20070;DHT22;10195;50.868;4.382;2023-12-20T10:15:31;8.40;99.90
20070;DHT22;10195;50.868;4.382;2023-12-20T10:17:57;8.40;99.90
20070;DHT22;10195;50.868;4.382;2023-12-20T10:20:23;8.70;99.90
20070;DHT22;10195;50.868;4.382;2023-12-20T10:22:49;8.90;99.90
20070;DHT22;10195;50.868;4.382;2023-12-20T10:25:15;9.00;99.90
20070;DHT22;10195;50.868;4.382;2023-12-20T10:27:41;8.80;99.90
20070;DHT22;10195;50.868;4.382;2023-12-20T10:30:07;8.80;99.90
20070;DHT22;10195;50.868;4.382;2023-12-20T10:32:33;8.80;99.90
20070;DHT22;10195;50.868;4.382;2023-12-20T10:34:59;8.90;99.90
20070;DHT22;10195;50.868;4.382;2023-12-20T10:37:25;8.80;99.90
20070;DHT22;10195;50.868;4.382;2023-12-20T10:39:53;8.80;99.90
20070;DHT22;10195;50.868;4.382;2023-12-20T10:42:22;8.80;99.90
20070;DHT22;10195;50.868;4.382;2023-12-20T10:44:51;8.80;99.90
20070;DHT22;10195;50.868;4.382;2023-12-20T10:47:19;8.90;99.90
20070;DHT22;10195;50.868;4.382;2023-12-20T10:49:46;8.80;99.90
20070;DHT22;10195;50.868;4.382;2023-12-20T10:52:12;8.70;99.90
20070;DHT22;10195;50.868;4.382;2023-12-20T10:54:41;8.70;99.90
20070;DHT22;10195;50.868;4.382;2023-12-20T10:57:07;8.60;99.90
20070;DHT22;10195;50.868;4.382;2023-12-20T10:59:35;8.80;99.90
20070;DHT22;10195;50.868;4.382;2023-12-20T11:02:03;8.80;99.90
20070;DHT22;10195;50.868;4.382;2023-12-20T11:09:43;8.90;99.90
20070;DHT22;10195;50.868;4.382;2023-12-20T11:12:24;8.90;99.90
20070;DHT22;10195;50.868;4.382;2023-12-20T11:14:53;9.00;99.90
20070;DHT22;10195;50.868;4.382;2023-12-20T11:17:21;8.90;99.90
20070;DHT22;10195;50.868;4.382;2023-12-20T11:22:22;8.90;99.90
20070;DHT22;10195;50.868;4.382;2023-12-20T11:24:48;8.80;99.90
20070;DHT22;10195;50.868;4.382;2023-12-20T11:27:14;8.80;99.90
20070;DHT22;10195;50.868;4.382;2023-12-20T11:29:41;8.80;99.90
20070;DHT22;10195;50.868;4.382;2023-12-20T11:34:58;8.90;99.90
20070;DHT22;10195;50.868;4.382;2023-12-20T11:37:32;8.90;99.90
20070;DHT22;10195;50.868;4.382;2023-12-20T11:40:02;8.80;99.90
20070;DHT22;10195;50.868;4.382;2023-12-20T11:42:33;8.80;99.90
20070;DHT22;10195;50.868;4.382;2023-12-20T11:45:01;8.90;99.90
20070;DHT22;10195;50.868;4.382;2023-12-20T11:47:29;8.90;99.90
20070;DHT22;10195;50.868;4.382;2023-12-20T11:49:55;8.90;99.90
20070;DHT22;10195;50.868;4.382;2023-12-20T11:52:21;8.90;99.90
20070;DHT22;10195;50.868;4.382;2023-12-20T11:54:47;8.90;99.90
20070;DHT22;10195;50.868;4.382;2023-12-20T11:57:13;8.80;99.90
20070;DHT22;10195;50.868;4.382;2023-12-20T11:59:42;8.90;99.90
20070;DHT22;10195;50.868;4.382;2023-12-20T12:02:08;8.90;99.90
20070;DHT22;10195;50.868;4.382;2023-12-20T12:04:36;8.90;99.90
20070;DHT22;10195;50.868;4.382;2023-12-20T12:07:02;8.90;99.90
20070;DHT22;10195;50.868;4.382;2023-12-20T12:09:28;9.00;99.90
20070;DHT22;10195;50.868;4.382;2023-12-20T12:11:54;9.00;99.90
20070;DHT22;10195;50.868;4.382;2023-12-20T12:14:21;9.10;99.90
20070;DHT22;10195;50.868;4.382;2023-12-20T12:16:48;9.10;99.90
20070;DHT22;10195;50.868;4.382;2023-12-20T12:19:24;9.10;99.90
20070;DHT22;10195;50.868;4.382;2023-12-20T12:21:51;9.00;99.90
20070;DHT22;10195;50.868;4.382;2023-12-20T12:24:20;9.10;99.90
20070;DHT22;10195;50.868;4.382;2023-12-20T12:26:51;9.20;99.90
20070;DHT22;10195;50.868;4.382;2023-12-20T12:29:17;9.10;99.90
20070;DHT22;10195;50.868;4.382;2023-12-20T12:31:42;9.10;99.90
20070;DHT22;10195;50.868;4.382;2023-12-20T12:34:08;9.10;99.90
20070;DHT22;10195;50.868;4.382;2023-12-20T12:36:34;9.10;99.90
20070;DHT22;10195;50.868;4.382;2023-12-20T12:39:02;9.10;99.90
20070;DHT22;10195;50.868;4.382;2023-12-20T12:41:30;9.00;99.90
20070;DHT22;10195;50.868;4.382;2023-12-20T12:43:56;9.10;99.90
20070;DHT22;10195;50.868;4.382;2023-12-20T12:46:21;9.20;99.90
20070;DHT22;10195;50.868;4.382;2023-12-20T12:48:47;9.20;99.90
20070;DHT22;10195;50.868;4.382;2023-12-20T12:51:14;9.30;99.90
20070;DHT22;10195;50.868;4.382;2023-12-20T12:53:40;9.30;99.90
20070;DHT22;10195;50.868;4.382;2023-12-20T12:56:06;9.20;99.90
20070;DHT22;10195;50.868;4.382;2023-12-20T12:58:33;9.20;99.90
20070;DHT22;10195;50.868;4.382;2023-12-20T13:00:58;9.30;99.90
20070;DHT22;10195;50.868;4.382;2023-12-20T13:03:24;9.20;99.90
20070;DHT22;10195;50.868;4.382;2023-12-20T13:05:50;9.40;99.90
20070;DHT22;10195;50.868;4.382;2023-12-20T13:08:16;9.40;99.90
20070;DHT22;10195;50.868;4.382;2023-12-20T13:10:41;9.40;99.90
20070;DHT22;10195;50.868;4.382;2023-12-20T13:13:07;9.40;99.90
20070;DHT22;10195;50.868;4.382;2023-12-20T13:15:33;9.30;99.90
20070;DHT22;10195;50.868;4.382;2023-12-20T13:17:58;9.40;99.90
20070;DHT22;10195;50.868;4.382;2023-12-20T13:20:25;9.30;99.90
20070;DHT22;10195;50.868;4.382;2023-12-20T13:22:51;9.20;99.90
20070;DHT22;10195;50.868;4.382;2023-12-20T13:25:16;9.20;99.90
20070;DHT22;10195;50.868;4.382;2023-12-20T13:27:42;9.30;99.90
20070;DHT22;10195;50.868;4.382;2023-12-20T13:30:09;9.40;99.90
20070;DHT22;10195;50.868;4.382;2023-12-20T13:32:35;9.40;99.90
20070;DHT22;10195;50.868;4.382;2023-12-20T13:35:00;9.50;99.90
20070;DHT22;10195;50.868;4.382;2023-12-20T13:37:26;9.50;99.90
20070;DHT22;10195;50.868;4.382;2023-12-20T13:39:52;9.60;99.90
20070;DHT22;10195;50.868;4.382;2023-12-20T13:42:17;9.60;99.90
20070;DHT22;10195;50.868;4.382;2023-12-20T13:44:43;9.60;99.90
20070;DHT22;10195;50.868;4.382;2023-12-20T13:47:09;9.70;99.90
20070;DHT22;10195;50.868;4.382;2023-12-20T13:49:35;9.80;99.90
20070;DHT22;10195;50.868;4.382;2023-12-20T13:52:00;9.80;99.90
20070;DHT22;10195;50.868;4.382;2023-12-20T13:54:26;9.70;99.90
20070;DHT22;10195;50.868;4.382;2023-12-20T13:56:52;9.60;99.90
20070;DHT22;10195;50.868;4.382;2023-12-20T13:59:17;9.60;99.90
20070;DHT22;10195;50.868;4.382;2023-12-20T14:01:43;9.60;99.90
20070;DHT22;10195;50.868;4.382;2023-12-20T14:04:09;9.60;99.90
20070;DHT22;10195;50.868;4.382;2023-12-20T14:06:34;9.70;99.90
20070;DHT22;10195;50.868;4.382;2023-12-20T14:09:00;9.70;99.90
20070;DHT22;10195;50.868;4.382;2023-12-20T14:11:26;9.70;99.90
20070;DHT22;10195;50.868;4.382;2023-12-20T14:13:52;9.70;99.90
20070;DHT22;10195;50.868;4.382;2023-12-20T14:16:17;9.70;99.90
20070;DHT22;10195;50.868;4.382;2023-12-20T14:18:43;9.70;99.90
20070;DHT22;10195;50.868;4.382;2023-12-20T14:21:09;9.70;99.90
20070;DHT22;10195;50.868;4.382;2023-12-20T14:23:34;9.70;99.90
20070;DHT22;10195;50.868;4.382;2023-12-20T14:26:01;9.80;99.90
20070;DHT22;10195;50.868;4.382;2023-12-20T14:28:27;9.80;99.90
20070;DHT22;10195;50.868;4.382;2023-12-20T14:30:53;9.80;99.90
20070;DHT22;10195;50.868;4.382;2023-12-20T14:33:19;9.80;99.90
20070;DHT22;10195;50.868;4.382;2023-12-20T14:35:47;9.90;99.90
20070;DHT22;10195;50.868;4.382;2023-12-20T14:38:12;9.90;99.90
20070;DHT22;10195;50.868;4.382;2023-12-20T14:40:41;10.00;99.90
20070;DHT22;10195;50.868;4.382;2023-12-20T14:43:07;10.00;99.90
20070;DHT22;10195;50.868;4.382;2023-12-20T14:45:32;9.90;99.90
20070;DHT22;10195;50.868;4.382;2023-12-20T14:47:58;9.90;99.90
20070;DHT22;10195;50.868;4.382;2023-12-20T14:50:24;10.00;99.90
20070;DHT22;10195;50.868;4.382;2023-12-20T14:52:50;9.90;99.90
20070;DHT22;10195;50.868;4.382;2023-12-20T14:55:18;9.80;99.90
20070;DHT22;10195;50.868;4.382;2023-12-20T14:57:44;9.80;99.90
20070;DHT22;10195;50.868;4.382;2023-12-20T15:00:10;9.80;99.90
20070;DHT22;10195;50.868;4.382;2023-12-20T15:02:41;9.80;99.90
20070;DHT22;10195;50.868;4.382;2023-12-20T15:05:07;9.70;99.90
20070;DHT22;10195;50.868;4.382;2023-12-20T15:07:33;9.80;99.90
20070;DHT22;10195;50.868;4.382;2023-12-20T15:09:58;9.90;99.90
20070;DHT22;10195;50.868;4.382;2023-12-20T15:12:24;10.00;99.90
20070;DHT22;10195;50.868;4.382;2023-12-20T15:14:50;10.00;99.90
20070;DHT22;10195;50.868;4.382;2023-12-20T15:17:15;10.00;99.90
20070;DHT22;10195;50.868;4.382;2023-12-20T15:19:41;10.00;99.90
20070;DHT22;10195;50.868;4.382;2023-12-20T15:22:08;10.00;99.90
20070;DHT22;10195;50.868;4.382;2023-12-20T15:24:33;10.00;99.90
20070;DHT22;10195;50.868;4.382;2023-12-20T15:27:06;10.00;99.90
20070;DHT22;10195;50.868;4.382;2023-12-20T15:29:32;9.90;99.90
20070;DHT22;10195;50.868;4.382;2023-12-20T15:31:58;9.90;99.90
20070;DHT22;10195;50.868;4.382;2023-12-20T15:34:24;10.00;99.90
20070;DHT22;10195;50.868;4.382;2023-12-20T15:36:49;9.90;99.90
20070;DHT22;10195;50.868;4.382;2023-12-20T15:39:15;9.90;99.90
20070;DHT22;10195;50.868;4.382;2023-12-20T15:41:41;9.80;99.90
20070;DHT22;10195;50.868;4.382;2023-12-20T15:44:07;9.80;99.90
20070;DHT22;10195;50.868;4.382;2023-12-20T15:46:33;9.80;99.90
20070;DHT22;10195;50.868;4.382;2023-12-20T15:48:59;9.90;99.90